createdAt,value
2019-02-23T00:01:15.154Z,102090.52
2019-02-23T00:03:44.251Z,102090.89
2019-02-23T00:06:13.331Z,102088.16
2019-02-23T00:08:42.445Z,102085.88
2019-02-23T00:11:11.577Z,102083.20
2019-02-23T00:13:40.864Z,102079.21
2019-02-23T00:16:09.893Z,102076.97
2019-02-23T00:18:38.971Z,102070.80
2019-02-23T00:21:08.096Z,102067.73
2019-02-23T00:23:37.233Z,102064.58
2019-02-23T00:26:06.341Z,102070.64
2019-02-23T00:28:35.417Z,102072.79
2019-02-23T00:31:04.510Z,102063.17
2019-02-23T00:33:33.592Z,102061.37
2019-02-23T00:36:02.688Z,102061.73
2019-02-23T00:38:31.769Z,102063.34
2019-02-23T00:41:00.831Z,102063.78
2019-02-23T00:43:29.945Z,102062.84
2019-02-23T00:45:59.034Z,102063.61
2019-02-23T00:48:28.198Z,102064.32
2019-02-23T00:50:57.228Z,102065.59
2019-02-23T00:53:26.329Z,102062.91
2019-02-23T00:55:55.425Z,102064.12
2019-02-23T00:58:24.543Z,102060.13
2019-02-23T01:00:53.649Z,102061.88
2019-02-23T01:03:22.731Z,102060.50
2019-02-23T01:05:51.789Z,102060.87
2019-02-23T01:08:20.855Z,102058.66
2019-02-23T01:10:57.790Z,102066.42
2019-02-23T01:13:20.893Z,102069.84
2019-02-23T01:15:50.127Z,102068.86
2019-02-23T01:18:19.243Z,102065.31
2019-02-23T01:20:48.372Z,102068.29
2019-02-23T01:23:17.492Z,102070.43
2019-02-23T01:25:46.584Z,102064.74
2019-02-23T01:28:15.708Z,102068.55
2019-02-23T01:30:44.889Z,102064.64
2019-02-23T01:33:14.063Z,102067.25
2019-02-23T01:35:43.148Z,102051.91
2019-02-23T01:38:12.347Z,102051.81
2019-02-23T01:40:41.532Z,102051.34
2019-02-23T01:43:10.669Z,102049.56
2019-02-23T01:45:42.577Z,102053.48
2019-02-23T01:48:10.686Z,102056.49
2019-02-23T01:50:39.911Z,102065.59
2019-02-23T01:53:09.070Z,102065.52
2019-02-23T01:55:38.212Z,102064.63
2019-02-23T01:58:07.282Z,102064.98
2019-02-23T02:00:36.400Z,102066.59
2019-02-23T02:03:05.508Z,102065.24
2019-02-23T02:05:34.728Z,102062.12
2019-02-23T02:08:03.826Z,102062.06
2019-02-23T02:10:33.179Z,102058.91
2019-02-23T02:13:02.331Z,102062.83
2019-02-23T02:15:31.550Z,102056.66
2019-02-23T02:18:00.702Z,102056.13
2019-02-23T02:20:29.842Z,102054.81
2019-02-23T02:22:58.996Z,102048.58
2019-02-23T02:25:28.368Z,102049.02
2019-02-23T02:27:57.513Z,102041.13
2019-02-23T02:30:26.748Z,102035.80
2019-02-23T02:32:55.852Z,102030.03
2019-02-23T02:35:24.977Z,102051.74
2019-02-23T02:37:54.089Z,102034.31
2019-02-23T02:40:23.263Z,102032.94
2019-02-23T02:42:52.591Z,102036.78
2019-02-23T02:45:21.707Z,102040.66
2019-02-23T02:47:50.835Z,102037.50
2019-02-23T02:50:24.415Z,102036.48
2019-02-23T02:52:50.804Z,102037.25
2019-02-23T02:55:19.949Z,102041.13
2019-02-23T02:57:49.047Z,102046.63
2019-02-23T03:00:18.101Z,102041.62
2019-02-23T03:02:47.095Z,102031.16
2019-02-23T03:05:16.228Z,102028.41
2019-02-23T03:07:45.290Z,102029.67
2019-02-23T03:10:14.382Z,101544.42
2019-02-23T03:12:43.449Z,102022.14
2019-02-23T03:15:12.565Z,102015.55
2019-02-23T03:17:41.672Z,102011.92
2019-02-23T03:20:10.779Z,102004.46
2019-02-23T03:22:39.820Z,102007.90
2019-02-23T03:25:08.990Z,102005.58
2019-02-23T03:27:38.060Z,102006.05
2019-02-23T03:30:08.731Z,102002.07
2019-02-23T03:32:37.839Z,101997.76
2019-02-23T03:35:06.949Z,101993.38
2019-02-23T03:37:36.030Z,101999.06
2019-02-23T03:40:05.600Z,101999.82
2019-02-23T03:42:34.715Z,102007.64
2019-02-23T03:45:03.834Z,102007.28
2019-02-23T03:47:32.923Z,102000.77
2019-02-23T03:50:02.042Z,102000.77
2019-02-23T03:52:31.123Z,102007.28
2019-02-23T03:55:00.385Z,102003.05
2019-02-23T03:57:31.575Z,102003.52
2019-02-23T04:00:00.652Z,102008.38
2019-02-23T04:02:29.790Z,102006.59
2019-02-23T04:04:58.924Z,102005.14
2019-02-23T04:07:27.980Z,102014.27
2019-02-23T04:09:57.040Z,102014.27
2019-02-23T04:12:26.107Z,102016.08
2019-02-23T04:14:55.184Z,102015.72
2019-02-23T04:17:24.283Z,102021.48
2019-02-23T04:19:53.394Z,102020.11
2019-02-23T04:22:22.529Z,102031.13
2019-02-23T04:24:51.680Z,102040.32
2019-02-23T04:27:20.770Z,102038.55
2019-02-23T04:29:49.842Z,102036.22
2019-02-23T04:32:18.956Z,102043.69
2019-02-23T04:34:48.072Z,102046.65
2019-02-23T04:37:17.195Z,102049.26
2019-02-23T04:39:46.274Z,102057.84
2019-02-23T04:42:15.414Z,102062.03
2019-02-23T04:44:44.520Z,102065.00
2019-02-23T04:47:13.624Z,102063.58
2019-02-23T04:49:42.670Z,102073.17
2019-02-23T04:52:11.777Z,102071.68
2019-02-23T04:54:40.864Z,102072.39
2019-02-23T04:57:09.956Z,102077.25
2019-02-23T04:59:39.030Z,102079.23
2019-02-23T05:02:08.152Z,101932.16
2019-02-23T05:04:37.236Z,102083.85
2019-02-23T05:07:06.302Z,102091.05
2019-02-23T05:09:35.370Z,102084.02
2019-02-23T05:12:04.449Z,102093.26
2019-02-23T05:14:33.551Z,102092.78
2019-02-23T05:17:02.645Z,102096.25
2019-02-23T05:19:31.720Z,102100.00
2019-02-23T05:22:00.792Z,102087.83
2019-02-23T05:24:29.814Z,102088.66
2019-02-23T05:26:58.864Z,102085.89
2019-02-23T05:29:27.967Z,102087.67
2019-02-23T05:31:57.003Z,102088.92
2019-02-23T05:34:26.087Z,102091.58
2019-02-23T05:36:55.145Z,102085.89
2019-02-23T05:39:24.215Z,102087.90
2019-02-23T05:41:53.279Z,102083.52
2019-02-23T05:44:22.344Z,102084.27
2019-02-23T05:46:51.403Z,102086.39
2019-02-23T05:49:20.491Z,102081.93
2019-02-23T05:51:49.564Z,102091.05
2019-02-23T05:54:18.666Z,102096.47
2019-02-23T05:56:47.716Z,102091.53
2019-02-23T05:59:16.828Z,102096.31
2019-02-23T06:01:45.854Z,102097.57
2019-02-23T06:04:14.935Z,102100.22
2019-02-23T06:06:44.077Z,102103.17
2019-02-23T06:09:13.147Z,102107.16
2019-02-23T06:11:42.270Z,102107.98
2019-02-23T06:14:11.342Z,102103.25
2019-02-23T06:16:40.422Z,102101.39
2019-02-23T06:19:09.508Z,102108.46
2019-02-23T06:21:52.289Z,102116.62
2019-02-23T06:24:09.530Z,102116.06
2019-02-23T06:26:38.678Z,102116.67
2019-02-23T06:29:07.770Z,102116.52
2019-02-23T06:31:36.868Z,102119.94
2019-02-23T06:34:15.477Z,102123.84
2019-02-23T06:36:36.767Z,102125.14
2019-02-23T06:39:06.414Z,102129.13
2019-02-23T06:41:35.496Z,102130.62
2019-02-23T06:44:04.617Z,102134.42
2019-02-23T06:46:33.742Z,102140.62
2019-02-23T06:49:02.797Z,102140.84
2019-02-23T06:51:31.849Z,102146.77
2019-02-23T06:54:00.977Z,102139.48
2019-02-23T06:56:30.074Z,102141.91
2019-02-23T06:58:59.227Z,102140.86
2019-02-23T07:01:28.262Z,102137.24
2019-02-23T07:03:57.299Z,102143.77
2019-02-23T07:06:26.500Z,102133.28
2019-02-23T07:08:55.563Z,102135.94
2019-02-23T07:11:24.645Z,102132.42
2019-02-23T07:13:53.706Z,102137.59
2019-02-23T07:16:22.786Z,102142.35
2019-02-23T07:18:51.956Z,102137.67
2019-02-23T07:21:21.101Z,102140.34
2019-02-23T07:23:50.243Z,102131.37
2019-02-23T07:26:19.368Z,102128.61
2019-02-23T07:28:48.407Z,102136.81
2019-02-23T07:31:17.496Z,102126.20
2019-02-23T07:33:46.569Z,102133.20
2019-02-23T07:36:15.674Z,102131.25
2019-02-23T07:38:44.881Z,102127.93
2019-02-23T07:41:14.029Z,102131.16
2019-02-23T07:43:43.077Z,102127.80
2019-02-23T07:46:12.273Z,102122.15
2019-02-23T07:48:41.459Z,102134.24
2019-02-23T07:51:10.608Z,102127.43
2019-02-23T07:53:39.666Z,102135.91
2019-02-23T07:56:08.811Z,102134.94
2019-02-23T07:58:38.062Z,102123.67
2019-02-23T08:01:07.195Z,102125.93
2019-02-23T08:03:36.276Z,102124.38
2019-02-23T08:06:05.390Z,102125.66
2019-02-23T08:08:34.469Z,102129.23
2019-02-23T08:11:03.597Z,102122.52
2019-02-23T08:13:32.679Z,102121.47
2019-02-23T08:16:01.736Z,102124.75
2019-02-23T08:18:30.818Z,102118.70
2019-02-23T08:20:59.967Z,102038.76
2019-02-23T08:23:29.021Z,102114.16
2019-02-23T08:25:58.126Z,102110.56
2019-02-23T08:28:27.362Z,102108.26
2019-02-23T08:30:56.494Z,102112.55
2019-02-23T08:33:25.626Z,102109.67
2019-02-23T08:35:54.745Z,102113.75
2019-02-23T08:38:23.856Z,102106.27
2019-02-23T08:40:52.893Z,102109.32
2019-02-23T08:43:21.999Z,102111.05
2019-02-23T08:45:51.138Z,102109.17
2019-02-23T08:48:20.269Z,102107.69
2019-02-23T08:50:49.323Z,102109.42
2019-02-23T08:53:18.417Z,102108.34
2019-02-23T08:55:47.583Z,102102.80
2019-02-23T08:58:16.729Z,102113.73
2019-02-23T09:00:45.859Z,102121.34
2019-02-23T09:03:14.979Z,102114.52
2019-02-23T09:05:44.052Z,102108.37
2019-02-23T09:08:13.205Z,102111.02
2019-02-23T09:10:42.271Z,102108.94
2019-02-23T09:13:11.364Z,102105.26
2019-02-23T09:15:40.465Z,102098.54
2019-02-23T09:18:09.789Z,102114.65
2019-02-23T09:20:39.498Z,102107.42
2019-02-23T09:23:08.599Z,102108.02
2019-02-23T09:25:37.688Z,102105.21
2019-02-23T09:28:06.770Z,102105.69
2019-02-23T09:30:35.908Z,102096.56
2019-02-23T09:33:04.978Z,102111.41
2019-02-23T09:35:34.099Z,102104.34
2019-02-23T09:38:03.165Z,102112.59
2019-02-23T09:40:32.289Z,102116.16
2019-02-23T09:43:01.521Z,102115.45
2019-02-23T09:45:31.741Z,102114.37
2019-02-23T09:48:01.148Z,102112.42
2019-02-23T09:50:30.307Z,102113.84
2019-02-23T09:52:59.477Z,102103.52
2019-02-23T09:55:28.745Z,102096.09
2019-02-23T09:57:57.909Z,102097.72
2019-02-23T10:00:27.163Z,102095.16
2019-02-23T10:02:56.298Z,102094.19
2019-02-23T10:05:25.452Z,102085.70
2019-02-23T10:07:54.563Z,102083.28
2019-02-23T10:10:23.713Z,102087.48
2019-02-23T10:12:52.889Z,102081.88
2019-02-23T10:15:22.041Z,102083.66
2019-02-23T10:17:51.197Z,102076.22
2019-02-23T10:20:20.319Z,102080.13
2019-02-23T10:22:49.413Z,102076.75
2019-02-23T10:25:18.538Z,102074.34
2019-02-23T10:27:47.705Z,102079.83
2019-02-23T10:30:16.856Z,102083.72
2019-02-23T10:32:45.938Z,102081.83
2019-02-23T10:35:15.116Z,102077.87
2019-02-23T10:37:44.259Z,102061.86
2019-02-23T10:40:13.392Z,102069.69
2019-02-23T10:42:42.606Z,102065.08
2019-02-23T10:45:11.745Z,102072.98
2019-02-23T10:47:40.855Z,102078.04
2019-02-23T10:50:10.255Z,102067.29
2019-02-23T10:52:39.416Z,102074.17
2019-02-23T10:55:09.567Z,102067.55
2019-02-23T10:57:38.723Z,102068.33
2019-02-23T11:00:14.647Z,102054.39
2019-02-23T11:02:43.832Z,102062.75
2019-02-23T11:05:13.142Z,102064.27
2019-02-23T11:07:42.588Z,102060.70
2019-02-23T11:10:11.789Z,102054.39
2019-02-23T11:12:41.044Z,102054.30
2019-02-23T11:15:10.859Z,102052.75
2019-02-23T11:17:39.990Z,102051.66
2019-02-23T11:20:09.534Z,102049.81
2019-02-23T11:22:38.651Z,102043.73
2019-02-23T11:25:08.242Z,102042.45
2019-02-23T11:27:37.417Z,102030.06
2019-02-23T11:30:07.393Z,102037.84
2019-02-23T11:32:36.586Z,102054.91
2019-02-23T11:35:05.769Z,102030.27
2019-02-23T11:37:34.858Z,102022.36
2019-02-23T11:40:04.040Z,102008.36
2019-02-23T11:42:33.203Z,102009.65
2019-02-23T11:45:02.282Z,101995.23
2019-02-23T11:47:31.401Z,101994.70
2019-02-23T11:50:00.610Z,101986.59
2019-02-23T11:52:29.735Z,101980.23
2019-02-23T11:54:58.844Z,101986.78
2019-02-23T11:57:28.014Z,101980.70
2019-02-23T11:59:57.194Z,101969.78
2019-02-23T12:02:26.247Z,101964.20
2019-02-23T12:04:55.506Z,101980.68
2019-02-23T12:07:24.575Z,101974.45
2019-02-23T12:09:53.676Z,101963.16
2019-02-23T12:12:22.913Z,101953.36
2019-02-23T12:14:52.101Z,101960.52
2019-02-23T12:17:21.268Z,101957.58
2019-02-23T12:19:50.372Z,101954.69
2019-02-23T12:22:19.430Z,101960.50
2019-02-23T12:24:48.547Z,101958.42
2019-02-23T12:27:17.694Z,101958.13
2019-02-23T12:29:46.759Z,101964.03
2019-02-23T12:32:15.891Z,101972.75
2019-02-23T12:34:44.999Z,101967.30
2019-02-23T12:37:14.092Z,101970.41
2019-02-23T12:39:43.186Z,101967.88
2019-02-23T12:42:12.321Z,101957.70
2019-02-23T12:44:41.414Z,101949.59
2019-02-23T12:47:10.536Z,101953.64
2019-02-23T12:49:39.643Z,101944.76
2019-02-23T12:52:08.889Z,101947.34
2019-02-23T12:54:37.981Z,101947.14
2019-02-23T12:57:07.095Z,101940.69
2019-02-23T12:59:36.189Z,101906.82
2019-02-23T13:02:05.277Z,101947.82
2019-02-23T13:04:34.348Z,101943.79
2019-02-23T13:07:03.436Z,101946.34
2019-02-23T13:09:35.548Z,101954.07
2019-02-23T13:12:18.753Z,101943.64
2019-02-23T13:15:01.396Z,101941.67
2019-02-23T13:17:45.555Z,101942.27
2019-02-23T13:20:43.796Z,101946.47
2019-02-23T13:23:58.847Z,101941.30
2019-02-23T13:26:52.907Z,101936.94
2019-02-23T13:30:18.326Z,101936.03
2019-02-23T13:33:15.226Z,101925.16
2019-02-23T13:36:11.710Z,101923.20
2019-02-23T13:39:09.469Z,101924.64
2019-02-23T13:42:15.886Z,101922.45
2019-02-23T13:45:31.438Z,101922.52
2019-02-23T13:48:24.552Z,101915.06
2019-02-23T13:51:24.094Z,101909.05
2019-02-23T13:54:39.285Z,101904.23
2019-02-23T13:57:41.077Z,101921.52
2019-02-23T14:01:00.433Z,101916.70
2019-02-23T14:03:56.795Z,101907.80
2019-02-23T14:06:58.121Z,101916.58
2019-02-23T14:10:13.359Z,101912.13
2019-02-23T14:13:32.598Z,101908.64
2019-02-23T14:16:23.555Z,101906.94
2019-02-23T14:19:19.019Z,101913.05
2019-02-23T14:22:02.949Z,101911.27
2019-02-23T14:25:17.213Z,101911.70
2019-02-23T14:28:39.640Z,101909.13
2019-02-23T14:31:59.326Z,101914.45
2019-02-23T14:35:27.637Z,101909.59
2019-02-23T14:38:42.386Z,101906.48
2019-02-23T14:41:48.732Z,101903.02
2019-02-23T14:44:55.940Z,101907.89
2019-02-23T14:47:53.205Z,101917.25
2019-02-23T14:51:08.809Z,101924.34
2019-02-23T14:54:25.767Z,101919.11
2019-02-23T14:57:57.040Z,101913.84
2019-02-23T15:01:01.768Z,101921.36
2019-02-23T15:04:14.172Z,101916.08
2019-02-23T15:07:01.432Z,101919.17
2019-02-23T15:09:59.349Z,101918.70
2019-02-23T15:13:24.784Z,101918.27
2019-02-23T15:16:18.021Z,101906.34
2019-02-23T15:19:23.925Z,101908.11
2019-02-23T15:22:34.695Z,101909.40
2019-02-23T15:25:42.117Z,101905.84
2019-02-23T15:28:38.308Z,101911.98
2019-02-23T15:31:37.636Z,101916.80
2019-02-23T15:34:46.610Z,101908.84
2019-02-23T15:37:41.424Z,101911.84
2019-02-23T15:41:00.233Z,101906.95
2019-02-23T15:43:42.296Z,101916.61
2019-02-23T15:46:48.055Z,101913.86
2019-02-23T15:49:33.761Z,101920.47
2019-02-23T15:52:07.274Z,101912.97
2019-02-23T15:54:36.509Z,101918.25
2019-02-23T15:57:05.627Z,101916.41
2019-02-23T15:59:34.723Z,101918.14
2019-02-23T16:02:03.865Z,101919.86
2019-02-23T16:04:33.017Z,101914.09
2019-02-23T16:07:02.061Z,101915.37
2019-02-23T16:09:31.210Z,101922.39
2019-02-23T16:12:00.352Z,101913.52
2019-02-23T16:14:29.467Z,101918.77
2019-02-23T16:16:58.599Z,101923.94
2019-02-23T16:19:27.715Z,101915.95
2019-02-23T16:21:56.818Z,101922.05
2019-02-23T16:24:25.996Z,101920.67
2019-02-23T16:26:55.139Z,101923.24
2019-02-23T16:29:24.448Z,101926.71
2019-02-23T16:31:53.612Z,101926.69
2019-02-23T16:34:22.779Z,101928.38
2019-02-23T16:36:51.841Z,101931.38
2019-02-23T16:39:20.978Z,101934.42
2019-02-23T16:41:50.099Z,101943.56
2019-02-23T16:44:19.267Z,101943.09
2019-02-23T16:46:48.436Z,101948.75
2019-02-23T16:49:17.563Z,101940.82
2019-02-23T16:51:46.695Z,101937.66
2019-02-23T16:54:15.717Z,101938.53
2019-02-23T16:56:44.823Z,101933.14
2019-02-23T16:59:13.911Z,101933.11
2019-02-23T17:01:42.983Z,101929.11
2019-02-23T17:04:12.143Z,101927.70
2019-02-23T17:06:41.239Z,101926.80
2019-02-23T17:09:10.532Z,101930.69
2019-02-23T17:11:39.619Z,101929.28
2019-02-23T17:14:08.777Z,101933.62
2019-02-23T17:16:37.949Z,101936.16
2019-02-23T17:19:07.128Z,101939.14
2019-02-23T17:21:36.309Z,101942.95
2019-02-23T17:24:05.536Z,101943.67
2019-02-23T17:26:36.806Z,101949.66
2019-02-23T17:29:05.465Z,101952.14
2019-02-23T17:31:34.594Z,101956.80
2019-02-23T17:34:03.724Z,101975.91
2019-02-23T17:36:32.815Z,101956.81
2019-02-23T17:39:01.946Z,101950.07
2019-02-23T17:41:31.055Z,101953.89
2019-02-23T17:44:00.292Z,101786.36
2019-02-23T17:46:29.423Z,101961.08
2019-02-23T17:48:58.527Z,101957.86
2019-02-23T17:51:27.626Z,101957.77
2019-02-23T17:53:56.691Z,101956.77
2019-02-23T17:56:25.717Z,101950.97
2019-02-23T17:58:54.802Z,101957.39
2019-02-23T18:01:25.459Z,101951.51
2019-02-23T18:03:54.766Z,101952.73
2019-02-23T18:06:24.258Z,101950.41
2019-02-23T18:08:53.534Z,101951.22
2019-02-23T18:11:23.105Z,101941.52
2019-02-23T18:13:52.973Z,101935.77
2019-02-23T18:16:22.184Z,101940.41
2019-02-23T18:18:51.512Z,101941.18
2019-02-23T18:21:20.954Z,101938.39
2019-02-23T18:23:50.496Z,101935.22
2019-02-23T18:26:21.940Z,101940.86
2019-02-23T18:28:51.495Z,101929.34
2019-02-23T18:31:20.834Z,101922.69
2019-02-23T18:33:50.202Z,101927.83
2019-02-23T18:36:19.588Z,101930.75
2019-02-23T18:38:49.391Z,101934.13
2019-02-23T18:41:18.746Z,101937.06
2019-02-23T18:43:48.108Z,101938.66
2019-02-23T18:46:17.407Z,101946.00
2019-02-23T18:48:46.800Z,101950.64
2019-02-23T18:51:16.449Z,101949.61
2019-02-23T18:53:45.712Z,101945.17
2019-02-23T18:56:15.139Z,101953.41
2019-02-23T18:58:44.884Z,101956.39
2019-02-23T19:01:15.319Z,101952.00
2019-02-23T19:03:45.106Z,101949.36
2019-02-23T19:06:14.487Z,101959.41
2019-02-23T19:08:44.381Z,101955.81
2019-02-23T19:11:13.794Z,101952.28
2019-02-23T19:13:43.052Z,101954.03
2019-02-23T19:16:12.963Z,101949.14
2019-02-23T19:18:42.293Z,101946.52
2019-02-23T19:21:11.545Z,101951.77
2019-02-23T19:23:40.968Z,101783.67
2019-02-23T19:26:10.337Z,101952.04
2019-02-23T19:28:43.292Z,101950.27
2019-02-23T19:31:11.821Z,101950.55
2019-02-23T19:33:41.133Z,101947.92
2019-02-23T19:36:10.850Z,101949.13
2019-02-23T19:38:40.319Z,101948.26
2019-02-23T19:41:09.903Z,101945.97
2019-02-23T19:43:39.268Z,101944.54
2019-02-23T19:46:08.687Z,101951.99
2019-02-23T19:48:38.057Z,101947.50
2019-02-23T19:51:10.145Z,101954.38
2019-02-23T19:53:40.593Z,101950.31
2019-02-23T19:56:09.942Z,101957.65
2019-02-23T19:58:39.239Z,101946.61
2019-02-23T20:01:08.786Z,101955.70
2019-02-23T20:03:38.318Z,101958.24
2019-02-23T20:06:08.498Z,101966.05
2019-02-23T20:08:37.881Z,101972.98
2019-02-23T20:11:10.319Z,101967.09
2019-02-23T20:13:39.690Z,101972.77
2019-02-23T20:16:09.053Z,101970.56
2019-02-23T20:18:38.315Z,101966.88
2019-02-23T20:21:07.662Z,101971.52
2019-02-23T20:23:37.978Z,101974.16
2019-02-23T20:26:07.267Z,101964.08
2019-02-23T20:28:36.744Z,101965.77
2019-02-23T20:31:06.014Z,101976.63
2019-02-23T20:33:35.917Z,101968.30
2019-02-23T20:36:05.555Z,101967.38
2019-02-23T20:38:34.930Z,101976.43
2019-02-23T20:41:04.049Z,101972.83
2019-02-23T20:43:33.124Z,101967.05
2019-02-23T20:46:02.239Z,101968.59
2019-02-23T20:48:31.279Z,101971.19
2019-02-23T20:51:00.364Z,101968.91
2019-02-23T20:53:29.408Z,101972.03
2019-02-23T20:55:58.460Z,101969.30
2019-02-23T20:58:27.559Z,101968.63
2019-02-23T21:00:56.671Z,101975.17
2019-02-23T21:03:25.764Z,101969.92
2019-02-23T21:05:54.813Z,101969.45
2019-02-23T21:08:23.934Z,101970.16
2019-02-23T21:10:53.801Z,101962.25
2019-02-23T21:13:22.849Z,101963.09
2019-02-23T21:15:51.946Z,101956.94
2019-02-23T21:18:21.004Z,101959.09
2019-02-23T21:20:51.611Z,101958.59
2019-02-23T21:23:20.906Z,101959.87
2019-02-23T21:25:50.070Z,101961.55
2019-02-23T21:28:19.158Z,101955.88
2019-02-23T21:30:48.243Z,101954.05
2019-02-23T21:33:17.324Z,101955.42
2019-02-23T21:35:46.439Z,101955.83
2019-02-23T21:38:15.505Z,101959.75
2019-02-23T21:40:44.661Z,101960.10
2019-02-23T21:43:13.780Z,101955.27
2019-02-23T21:45:42.959Z,101953.50
2019-02-23T21:48:12.090Z,101951.30
2019-02-23T21:50:41.200Z,101955.53
2019-02-23T21:53:10.313Z,101944.99
2019-02-23T21:55:39.554Z,101956.50
2019-02-23T21:58:08.837Z,101951.98
2019-02-23T22:00:38.011Z,101951.53
2019-02-23T22:03:07.249Z,101954.05
2019-02-23T22:05:36.378Z,101951.81
2019-02-23T22:08:05.496Z,101950.54
2019-02-23T22:10:34.704Z,101947.98
2019-02-23T22:13:03.774Z,101948.05
2019-02-23T22:15:32.937Z,101948.39
2019-02-23T22:18:02.082Z,101948.45
2019-02-23T22:20:31.143Z,101947.52
2019-02-23T22:23:00.291Z,101644.91
2019-02-23T22:25:29.588Z,101947.89
2019-02-23T22:27:58.674Z,101951.30
2019-02-23T22:30:27.748Z,101941.67
2019-02-23T22:32:56.845Z,101946.91
2019-02-23T22:35:25.925Z,101955.13
2019-02-23T22:37:55.045Z,101954.54
2019-02-23T22:40:24.196Z,101955.78
2019-02-23T22:42:53.306Z,101955.78
2019-02-23T22:45:22.403Z,101958.38
2019-02-23T22:47:51.590Z,101948.32
2019-02-23T22:50:21.588Z,101950.06
2019-02-23T22:52:50.730Z,101944.31
2019-02-23T22:55:19.815Z,101945.93
2019-02-23T22:57:48.956Z,101952.00
2019-02-23T23:00:23.846Z,101946.25
2019-02-23T23:02:53.027Z,101958.78
2019-02-23T23:05:22.128Z,101962.05
2019-02-23T23:07:51.206Z,101954.16
2019-02-23T23:10:20.340Z,101954.06
2019-02-23T23:12:49.445Z,101958.76
2019-02-23T23:15:18.545Z,101956.45
2019-02-23T23:17:47.678Z,101947.25
2019-02-23T23:20:16.791Z,101948.86
2019-02-23T23:22:45.968Z,101948.86
2019-02-23T23:25:15.040Z,101939.56
2019-02-23T23:27:49.337Z,101939.23
2019-02-23T23:30:15.071Z,101934.78
2019-02-23T23:32:44.187Z,101929.92
2019-02-23T23:35:13.314Z,101928.16
2019-02-23T23:37:42.385Z,101933.31
2019-02-23T23:40:11.506Z,101924.11
2019-02-23T23:42:40.668Z,101935.39
2019-02-23T23:45:09.784Z,101930.08
2019-02-23T23:47:38.837Z,101921.70
2019-02-23T23:50:07.921Z,101931.32
2019-02-23T23:52:36.998Z,101925.26
2019-02-23T23:55:06.100Z,101926.16
2019-02-23T23:57:35.173Z,101929.23
